Time;durP1;ratioP1;P1;durP2;ratioP2;P2;SDS_P1;SDS_P2;PMS_P1;PMS_P2;Temp;Humidity;BMP_temperature;BMP_pressure;BME280_temperature;BME280_humidity;BME280_pressure;Samples;Min_cycle;Max_cycle;Signal;HPM_P1;HPM_P2
2024/01/26 00:00:13;;;;;;;;;;;;;;;;;;5049473;28;20226;-45
2024/01/26 00:02:39;;;;;;;;;;;;;;;;;;5047862;28;20019;-46
2024/01/26 00:05:04;;;;;;;;;;;;;;;;;;5048193;28;19968;-43
2024/01/26 00:07:31;;;;;;;;;;;;;;;;;;5048505;28;19960;-43
2024/01/26 00:09:56;;;;;;;;;;;;;;;;;;5048300;28;19932;-45
2024/01/26 00:12:22;;;;;;;;;;;;;;;;;;5048078;28;20018;-45
2024/01/26 00:14:47;;;;;;;;;;;;;;;;;;5047793;28;19967;-43
2024/01/26 00:17:13;;;;;;;;;;;;;;;;;;5047632;28;19951;-45
2024/01/26 00:19:38;;;;;;;;;;;;;;;;;;5050436;28;20214;-43
2024/01/26 00:22:04;;;;;;;;;;;;;;;;;;5048106;28;20374;-43
2024/01/26 00:24:29;;;;;;;;;;;;;;;;;;5047132;28;19972;-44
2024/01/26 00:26:55;;;;;;;;;;;;;;;;;;5047762;28;20296;-45
2024/01/26 00:29:21;;;;;;;;;;;;;;;;;;5049575;28;19933;-43
2024/01/26 00:31:46;;;;;;;;;;;;;;;;;;5047903;28;19951;-46
2024/01/26 00:34:11;;;;;;;;;;;;;;;;;;5047374;28;20336;-44
2024/01/26 00:36:37;;;;;;;;;;;;;;;;;;5046596;28;20428;-44
2024/01/26 00:39:03;;;;;;;;;;;;;;;;;;5047246;28;20094;-44
2024/01/26 00:41:28;;;;;;;;;;;;;;;;;;5047423;28;19924;-46
2024/01/26 00:43:54;;;;;;;;;;;;;;;;;;5046511;28;19933;-44
2024/01/26 00:46:19;;;;;;;;;;;;;;;;;;5046955;28;20284;-45
2024/01/26 00:48:44;;;;;;;;;;;;;;;;;;5046959;28;20348;-47
2024/01/26 00:51:11;;;;;;;;;;;;;;;;;;5047268;28;20383;-45
2024/01/26 00:53:36;;;;;;;;;;;;;;;;;;5047607;28;20327;-45
2024/01/26 00:56:02;;;;;;;;;;;;;;;;;;5047110;28;20031;-43
2024/01/26 00:58:27;;;;;;;;;;;;;;;;;;5047395;28;20332;-44
2024/01/26 01:00:53;;;;;;;;;;;;;;;;;;5047505;28;20024;-44
2024/01/26 01:03:19;;;;;;;;;;;;;;;;;;5046999;28;19931;-44
2024/01/26 01:05:44;;;;;;;;;;;;;;;;;;5047384;28;19933;-44
2024/01/26 01:08:10;;;;;;;;;;;;;;;;;;5047494;28;19940;-44
2024/01/26 01:10:36;;;;;;;;;;;;;;;;;;5046969;28;19960;-43
2024/01/26 01:13:04;;;;;;;;;;;;;;;;;;5047183;28;20010;-43
2024/01/26 01:15:29;;;;;;;;;;;;;;;;;;5047503;28;19952;-45
2024/01/26 01:17:55;;;;;;;;;;;;;;;;;;5047557;28;19987;-45
2024/01/26 01:20:20;;;;;;;;;;;;;;;;;;5047460;28;19956;-43
2024/01/26 01:22:47;;;;;;;;;;;;;;;;;;5047069;28;20123;-46
2024/01/26 01:25:12;;;;;;;;;;;;;;;;;;5047290;28;20034;-44
2024/01/26 01:27:38;;;;;;;;;;;;;;;;;;5047382;28;19928;-44
2024/01/26 01:30:03;;;;;;;;;;;;;;;;;;5047778;28;19935;-44
2024/01/26 01:32:29;;;;;;;;;;;;;;;;;;5046246;28;20488;-43
2024/01/26 01:34:54;;;;;;;;;;;;;;;;;;5046257;28;20472;-45
2024/01/26 01:37:20;;;;;;;;;;;;;;;;;;5046495;28;20012;-47
2024/01/26 01:39:46;;;;;;;;;;;;;;;;;;5046512;28;20239;-44
2024/01/26 01:42:13;;;;;;;;;;;;;;;;;;5046397;28;19964;-43
2024/01/26 01:44:39;;;;;;;;;;;;;;;;;;5046362;28;19979;-44
2024/01/26 01:47:04;;;;;;;;;;;;;;;;;;5046471;28;20004;-45
2024/01/26 01:49:30;;;;;;;;;;;;;;;;;;5046821;28;20444;-43
2024/01/26 01:51:55;;;;;;;;;;;;;;;;;;5046799;28;19992;-44
2024/01/26 01:54:21;;;;;;;;;;;;;;;;;;5046570;28;20015;-44
2024/01/26 01:56:47;;;;;;;;;;;;;;;;;;5046231;28;19932;-45
2024/01/26 01:59:13;;;;;;;;;;;;;;;;;;5046475;28;19932;-44
2024/01/26 02:01:38;;;;;;;;;;;;;;;;;;5046539;28;19931;-44
2024/01/26 02:04:05;;;;;;;;;;;;;;;;;;5046369;28;20035;-45
2024/01/26 02:06:30;;;;;;;;;;;;;;;;;;5046565;28;20241;-48
2024/01/26 02:08:56;;;;;;;;;;;;;;;;;;5048388;28;19978;-44
2024/01/26 02:11:23;;;;;;;;;;;;;;;;;;5047012;28;19980;-44
2024/01/26 02:13:48;;;;;;;;;;;;;;;;;;5046404;28;19925;-44
2024/01/26 02:16:13;;;;;;;;;;;;;;;;;;5047251;28;19947;-44
2024/01/26 02:18:39;;;;;;;;;;;;;;;;;;5046663;28;20008;-44
2024/01/26 02:21:04;;;;;;;;;;;;;;;;;;5046696;28;19968;-46
2024/01/26 02:23:30;;;;;;;;;;;;;;;;;;5045562;28;19969;-43
2024/01/26 02:25:55;;;;;;;;;;;;;;;;;;5045790;28;19998;-44
2024/01/26 02:28:21;;;;;;;;;;;;;;;;;;5045991;28;20303;-45
2024/01/26 02:30:46;;;;;;;;;;;;;;;;;;5048169;28;20021;-44
2024/01/26 02:33:12;;;;;;;;;;;;;;;;;;5047293;28;19976;-44
2024/01/26 02:35:38;;;;;;;;;;;;;;;;;;5045690;28;20380;-44
2024/01/26 02:38:03;;;;;;;;;;;;;;;;;;5045715;28;19933;-43
2024/01/26 02:40:29;;;;;;;;;;;;;;;;;;5045873;28;19932;-44
2024/01/26 02:42:54;;;;;;;;;;;;;;;;;;5046138;28;19982;-46
2024/01/26 02:45:20;;;;;;;;;;;;;;;;;;5045858;28;20011;-43
2024/01/26 02:47:45;;;;;;;;;;;;;;;;;;5046061;28;19936;-43
2024/01/26 02:50:11;;;;;;;;;;;;;;;;;;5049558;28;20007;-44
2024/01/26 02:52:36;;;;;;;;;;;;;;;;;;5048355;28;19959;-44
2024/01/26 02:55:02;;;;;;;;;;;;;;;;;;5048738;28;20027;-45
2024/01/26 02:57:28;;;;;;;;;;;;;;;;;;5050148;28;20265;-45
2024/01/26 02:59:53;;;;;;;;;;;;;;;;;;5051311;28;20464;-47
2024/01/26 03:02:19;;;;;;;;;;;;;;;;;;5049423;28;20003;-44
2024/01/26 03:04:45;;;;;;;;;;;;;;;;;;5049612;28;19935;-44
2024/01/26 03:07:10;;;;;;;;;;;;;;;;;;5049742;28;20292;-45
2024/01/26 03:09:35;;;;;;;;;;;;;;;;;;5049524;28;20066;-44
2024/01/26 03:12:01;;;;;;;;;;;;;;;;;;5049082;28;19956;-44
2024/01/26 03:14:28;;;;;;;;;;;;;;;;;;5049436;28;20073;-44
2024/01/26 03:16:54;;;;;;;;;;;;;;;;;;5049271;28;19964;-44
2024/01/26 03:19:19;;;;;;;;;;;;;;;;;;5048644;28;19932;-43
2024/01/26 03:21:45;;;;;;;;;;;;;;;;;;5048444;28;19971;-45
2024/01/26 03:24:10;;;;;;;;;;;;;;;;;;5047958;28;19933;-43
2024/01/26 03:26:37;;;;;;;;;;;;;;;;;;5049075;28;20435;-44
2024/01/26 03:29:02;;;;;;;;;;;;;;;;;;5048036;28;19939;-45
2024/01/26 03:31:28;;;;;;;;;;;;;;;;;;5048542;28;19976;-44
2024/01/26 03:33:53;;;;;;;;;;;;;;;;;;5048576;28;19956;-44
2024/01/26 03:36:19;;;;;;;;;;;;;;;;;;5048732;28;19967;-45
2024/01/26 03:38:44;;;;;;;;;;;;;;;;;;5048847;28;19949;-44
2024/01/26 03:41:10;;;;;;;;;;;;;;;;;;5052182;28;19971;-44
2024/01/26 03:43:35;;;;;;;;;;;;;;;;;;5048289;28;20011;-43
2024/01/26 03:46:01;;;;;;;;;;;;;;;;;;5048148;28;19925;-43
2024/01/26 03:48:27;;;;;;;;;;;;;;;;;;5048387;28;19956;-43
2024/01/26 03:50:52;;;;;;;;;;;;;;;;;;5048413;28;19975;-43
2024/01/26 03:53:18;;;;;;;;;;;;;;;;;;5048566;28;19967;-43
2024/01/26 03:55:43;;;;;;;;;;;;;;;;;;5048009;28;20027;-44
2024/01/26 03:58:09;;;;;;;;;;;;;;;;;;5048811;28;19972;-43
2024/01/26 04:00:35;;;;;;;;;;;;;;;;;;5047885;28;20020;-44
2024/01/26 04:03:00;;;;;;;;;;;;;;;;;;5047545;28;19933;-44
2024/01/26 04:05:26;;;;;;;;;;;;;;;;;;5048486;28;20012;-43
2024/01/26 04:07:51;;;;;;;;;;;;;;;;;;5049007;28;19933;-43
2024/01/26 04:10:17;;;;;;;;;;;;;;;;;;5047850;28;20009;-45
2024/01/26 04:12:42;;;;;;;;;;;;;;;;;;5048174;28;20007;-45
2024/01/26 04:15:08;;;;;;;;;;;;;;;;;;5047499;28;20019;-44
2024/01/26 04:17:33;;;;;;;;;;;;;;;;;;5048983;28;19952;-44
2024/01/26 04:19:59;;;;;;;;;;;;;;;;;;5047546;28;20013;-43
2024/01/26 04:22:24;;;;;;;;;;;;;;;;;;5047581;28;19987;-43
2024/01/26 04:24:50;;;;;;;;;;;;;;;;;;5047031;28;19968;-43
2024/01/26 04:27:15;;;;;;;;;;;;;;;;;;5048165;28;19952;-45
2024/01/26 04:29:41;;;;;;;;;;;;;;;;;;5047552;28;19979;-46
2024/01/26 04:32:06;;;;;;;;;;;;;;;;;;5047955;28;19996;-45
2024/01/26 04:34:31;;;;;;;;;;;;;;;;;;5050229;28;19925;-44
2024/01/26 04:36:57;;;;;;;;;;;;;;;;;;5048201;28;19974;-43
2024/01/26 04:39:22;;;;;;;;;;;;;;;;;;5047787;28;20027;-44
2024/01/26 04:41:48;;;;;;;;;;;;;;;;;;5047152;28;19933;-44
2024/01/26 04:44:13;;;;;;;;;;;;;;;;;;5047289;28;19925;-44
2024/01/26 04:46:39;;;;;;;;;;;;;;;;;;5047377;28;20364;-45
2024/01/26 04:49:05;;;;;;;;;;;;;;;;;;5047726;28;20144;-45
2024/01/26 04:51:30;;;;;;;;;;;;;;;;;;5048731;28;19925;-43
2024/01/26 04:53:56;;;;;;;;;;;;;;;;;;5046591;28;20015;-45
2024/01/26 04:56:21;;;;;;;;;;;;;;;;;;5048097;28;19925;-44
2024/01/26 04:58:47;;;;;;;;;;;;;;;;;;5047837;28;19932;-42
2024/01/26 05:01:12;;;;;;;;;;;;;;;;;;5047012;28;20020;-42
2024/01/26 05:03:38;;;;;;;;;;;;;;;;;;5047318;28;19972;-46
2024/01/26 05:06:04;;;;;;;;;;;;;;;;;;5047038;28;20788;-43
2024/01/26 05:08:29;;;;;;;;;;;;;;;;;;5047039;28;20012;-43
2024/01/26 05:10:55;;;;;;;;;;;;;;;;;;5045991;28;20404;-45
2024/01/26 05:13:20;;;;;;;;;;;;;;;;;;5046778;28;19925;-43
2024/01/26 05:15:45;;;;;;;;;;;;;;;;;;5047685;28;20023;-44
2024/01/26 05:18:11;;;;;;;;;;;;;;;;;;5051479;28;19936;-43
2024/01/26 05:20:37;;;;;;;;;;;;;;;;;;5050355;28;19925;-43
2024/01/26 05:23:02;;;;;;;;;;;;;;;;;;5047229;28;20023;-43
2024/01/26 05:25:28;;;;;;;;;;;;;;;;;;5050019;28;20019;-45
2024/01/26 05:27:53;;;;;;;;;;;;;;;;;;5046974;28;19960;-44
2024/01/26 05:30:19;;;;;;;;;;;;;;;;;;5046637;28;20020;-46
2024/01/26 05:32:44;;;;;;;;;;;;;;;;;;5045478;28;19957;-44
2024/01/26 05:35:10;;;;;;;;;;;;;;;;;;5045843;28;19925;-44
2024/01/26 05:37:35;;;;;;;;;;;;;;;;;;5048067;28;20019;-44
2024/01/26 05:40:01;;;;;;;;;;;;;;;;;;5046371;28;20164;-43
2024/01/26 05:42:26;;;;;;;;;;;;;;;;;;5046866;28;19968;-44
2024/01/26 05:44:52;;;;;;;;;;;;;;;;;;5046816;28;19968;-44
2024/01/26 05:47:18;;;;;;;;;;;;;;;;;;5047143;28;19982;-45
2024/01/26 05:49:44;;;;;;;;;;;;;;;;;;5046278;28;19932;-45
2024/01/26 05:52:09;;;;;;;;;;;;;;;;;;5046580;28;20205;-46
2024/01/26 05:54:35;;;;;;;;;;;;;;;;;;5046473;28;19982;-44
2024/01/26 05:57:01;;;;;;;;;;;;;;;;;;5046748;28;20028;-43
2024/01/26 05:59:26;;;;;;;;;;;;;;;;;;5052547;28;20437;-43
2024/01/26 06:01:52;;;;;;;;;;;;;;;;;;5051199;28;19951;-43
2024/01/26 06:04:17;;;;;;;;;;;;;;;;;;5054111;28;20357;-44
2024/01/26 06:06:43;;;;;;;;;;;;;;;;;;5047192;28;19924;-43
2024/01/26 06:09:09;;;;;;;;;;;;;;;;;;5049332;28;19975;-43
2024/01/26 06:11:34;;;;;;;;;;;;;;;;;;5047363;28;19947;-45
2024/01/26 06:14:00;;;;;;;;;;;;;;;;;;5050745;28;20283;-44
2024/01/26 06:16:26;;;;;;;;;;;;;;;;;;5052226;28;20097;-44
2024/01/26 06:18:52;;;;;;;;;;;;;;;;;;5058446;28;19998;-46
2024/01/26 06:21:17;;;;;;;;;;;;;;;;;;5056659;28;19937;-44
2024/01/26 06:23:43;;;;;;;;;;;;;;;;;;5051245;28;20410;-42
2024/01/26 06:26:08;;;;;;;;;;;;;;;;;;5047280;28;20455;-44
2024/01/26 06:28:34;;;;;;;;;;;;;;;;;;5053223;28;19929;-43
2024/01/26 06:30:59;;;;;;;;;;;;;;;;;;5054299;28;20311;-44
2024/01/26 06:33:25;;;;;;;;;;;;;;;;;;5058253;28;20416;-44
2024/01/26 06:35:51;;;;;;;;;;;;;;;;;;5050264;28;20349;-46
2024/01/26 06:38:16;;;;;;;;;;;;;;;;;;5059063;28;19932;-43
2024/01/26 06:40:41;;;;;;;;;;;;;;;;;;5057339;28;20011;-43
2024/01/26 06:43:08;;;;;;;;;;;;;;;;;;5056227;28;19954;-43
2024/01/26 06:45:33;;;;;;;;;;;;;;;;;;5051640;28;19925;-43
2024/01/26 06:47:59;;;;;;;;;;;;;;;;;;5054461;28;19932;-45
2024/01/26 06:50:24;;;;;;;;;;;;;;;;;;5051968;28;20027;-45
2024/01/26 06:52:50;;;;;;;;;;;;;;;;;;5054493;28;20019;-43
2024/01/26 06:55:15;;;;;;;;;;;;;;;;;;5054389;28;20114;-43
2024/01/26 06:57:41;;;;;;;;;;;;;;;;;;5055890;28;20019;-43
2024/01/26 07:00:07;;;;;;;;;;;;;;;;;;5052959;28;19959;-45
2024/01/26 07:02:33;;;;;;;;;;;;;;;;;;5056596;28;19939;-44
2024/01/26 07:05:00;;;;;;;;;;;;;;;;;;5061350;28;19955;-44
2024/01/26 07:07:25;;;;;;;;;;;;;;;;;;5060241;28;20375;-44
2024/01/26 07:09:51;;;;;;;;;;;;;;;;;;5058689;28;19956;-46
2024/01/26 07:12:16;;;;;;;;;;;;;;;;;;5061286;28;19947;-45
2024/01/26 07:14:42;;;;;;;;;;;;;;;;;;5060514;28;19963;-44
2024/01/26 07:17:08;;;;;;;;;;;;;;;;;;5059428;28;19931;-46
2024/01/26 07:19:33;;;;;;;;;;;;;;;;;;5058966;28;20395;-46
2024/01/26 07:21:59;;;;;;;;;;;;;;;;;;5060091;28;20034;-43
2024/01/26 07:24:24;;;;;;;;;;;;;;;;;;5054543;28;20421;-42
2024/01/26 07:26:50;;;;;;;;;;;;;;;;;;5060078;28;19924;-46
2024/01/26 07:29:15;;;;;;;;;;;;;;;;;;5052885;28;19932;-44
2024/01/26 07:31:41;;;;;;;;;;;;;;;;;;5056801;28;20007;-43
2024/01/26 07:34:07;;;;;;;;;;;;;;;;;;5052614;28;20046;-43
2024/01/26 07:36:36;;;;;;;;;;;;;;;;;;5061701;28;20069;-43
2024/01/26 07:39:02;;;;;;;;;;;;;;;;;;5052879;28;20006;-48
2024/01/26 07:41:27;;;;;;;;;;;;;;;;;;5056884;28;20430;-43
2024/01/26 07:43:52;;;;;;;;;;;;;;;;;;5059797;28;19997;-44
2024/01/26 07:46:18;;;;;;;;;;;;;;;;;;5058035;28;20029;-47
2024/01/26 07:48:43;;;;;;;;;;;;;;;;;;5051145;28;20062;-44
2024/01/26 07:51:09;;;;;;;;;;;;;;;;;;5054080;28;20027;-43
2024/01/26 07:53:34;;;;;;;;;;;;;;;;;;5056310;28;20027;-43
2024/01/26 07:56:00;;;;;;;;;;;;;;;;;;5052723;28;19930;-43
2024/01/26 07:58:25;;;;;;;;;;;;;;;;;;5056150;28;19981;-45
2024/01/26 08:00:51;;;;;;;;;;;;;;;;;;5055880;28;19929;-46
2024/01/26 08:03:16;;;;;;;;;;;;;;;;;;5055486;28;19951;-43
2024/01/26 08:05:42;;;;;;;;;;;;;;;;;;5055488;28;20031;-46
2024/01/26 08:08:07;;;;;;;;;;;;;;;;;;5047900;28;20660;-44
2024/01/26 08:10:33;;;;;;;;;;;;;;;;;;5051349;28;19978;-43
2024/01/26 08:12:59;;;;;;;;;;;;;;;;;;5062740;28;20032;-45
2024/01/26 08:15:24;;;;;;;;;;;;;;;;;;5050138;28;20376;-46
2024/01/26 08:17:50;;;;;;;;;;;;;;;;;;5050083;28;20038;-44
2024/01/26 08:20:15;;;;;;;;;;;;;;;;;;5042629;28;19932;-44
2024/01/26 08:22:42;;;;;;;;;;;;;;;;;;5048497;28;19928;-43
2024/01/26 08:25:08;;;;;;;;;;;;;;;;;;5047021;28;19982;-43
2024/01/26 08:27:33;;;;;;;;;;;;;;;;;;5049681;28;20420;-46
2024/01/26 08:29:59;;;;;;;;;;;;;;;;;;5044569;28;19928;-45
2024/01/26 08:32:24;;;;;;;;;;;;;;;;;;5056915;28;19971;-43
2024/01/26 08:34:50;;;;;;;;;;;;;;;;;;4969679;28;19926;-44
2024/01/26 08:37:15;;;;;;;;;;;;;;;;;;4974152;28;20024;-45
2024/01/26 08:39:41;;;;;;;;;;;;;;;;;;4973532;28;19926;-44
2024/01/26 08:42:07;;;;;;;;;;;;;;;;;;4975209;28;19929;-45
2024/01/26 08:44:32;;;;;;;;;;;;;;;;;;4972286;28;20326;-43
2024/01/26 08:46:58;;;;;;;;;;;;;;;;;;4975939;28;20298;-43
2024/01/26 08:49:23;;;;;;;;;;;;;;;;;;4974479;28;20062;-43
2024/01/26 08:51:51;;;;;;;;;;;;;;;;;;4977198;28;19965;-45
2024/01/26 08:54:16;;;;;;;;;;;;;;;;;;5048391;28;20021;-43
2024/01/26 08:56:42;;;;;;;;;;;;;;;;;;5046154;28;19933;-43
2024/01/26 08:59:07;;;;;;;;;;;;;;;;;;5043463;28;19933;-46
2024/01/26 09:01:35;;;;;;;;;;;;;;;;;;5049268;28;20019;-43
2024/01/26 09:04:00;;;;;;;;;;;;;;;;;;5045886;28;19979;-42
2024/01/26 09:06:25;;;;;;;;;;;;;;;;;;5047849;28;20026;-43
2024/01/26 09:08:51;;;;;;;;;;;;;;;;;;5047466;28;20023;-44
2024/01/26 09:11:17;;;;;;;;;;;;;;;;;;5048129;28;20015;-43
2024/01/26 09:13:43;;;;;;;;;;;;;;;;;;5053752;28;20434;-48
2024/01/26 09:16:08;;;;;;;;;;;;;;;;;;5057730;28;19932;-46
2024/01/26 09:18:33;;;;;;;;;;;;;;;;;;5053722;28;20068;-45
2024/01/26 09:21:10;;;;;;;;;;;;;;;;;;5056818;28;20558;-43
2024/01/26 09:23:36;;;;;;;;;;;;;;;;;;5052367;28;19933;-46
2024/01/26 09:26:01;;;;;;;;;;;;;;;;;;5040461;28;19931;-44
2024/01/26 09:28:26;;;;;;;;;;;;;;;;;;5048294;28;20415;-46
2024/01/26 09:30:52;;;;;;;;;;;;;;;;;;5045622;28;19924;-45
2024/01/26 09:33:17;;;;;;;;;;;;;;;;;;5060432;28;19967;-44
2024/01/26 09:35:43;;;;;;;;;;;;;;;;;;5062762;28;19955;-43
2024/01/26 09:38:08;;;;;;;;;;;;;;;;;;5061110;28;19964;-44
2024/01/26 09:40:34;;;;;;;;;;;;;;;;;;5059938;28;20284;-44
2024/01/26 09:42:59;;;;;;;;;;;;;;;;;;5061871;28;19928;-43
2024/01/26 09:45:25;;;;;;;;;;;;;;;;;;5062998;28;20525;-43
2024/01/26 09:47:51;;;;;;;;;;;;;;;;;;5061210;28;19929;-43
2024/01/26 09:50:17;;;;;;;;;;;;;;;;;;5060163;28;21331;-43
2024/01/26 09:52:42;;;;;;;;;;;;;;;;;;5066980;28;20026;-44
2024/01/26 09:55:08;;;;;;;;;;;;;;;;;;5067272;28;19924;-45
2024/01/26 09:57:34;;;;;;;;;;;;;;;;;;5056989;28;20383;-44
2024/01/26 09:59:59;;;;;;;;;;;;;;;;;;5063917;28;20129;-44
2024/01/26 10:02:25;;;;;;;;;;;;;;;;;;5059663;28;19929;-45
2024/01/26 10:04:50;;;;;;;;;;;;;;;;;;5071420;28;20019;-43
2024/01/26 10:07:16;;;;;;;;;;;;;;;;;;5068040;28;19943;-44
2024/01/26 10:09:42;;;;;;;;;;;;;;;;;;5071305;28;19932;-43
2024/01/26 10:12:07;;;;;;;;;;;;;;;;;;5067289;28;19940;-44
2024/01/26 10:14:33;;;;;;;;;;;;;;;;;;5067532;28;20015;-44
2024/01/26 10:16:59;;;;;;;;;;;;;;;;;;5069019;28;20006;-46
2024/01/26 10:19:25;;;;;;;;;;;;;;;;;;5068260;28;19968;-43
2024/01/26 10:21:51;;;;;;;;;;;;;;;;;;5064497;28;19950;-44
2024/01/26 10:24:17;;;;;;;;;;;;;;;;;;5070236;28;19932;-44
2024/01/26 10:26:43;;;;;;;;;;;;;;;;;;5069657;28;20339;-43
2024/01/26 10:29:10;;;;;;;;;;;;;;;;;;5068227;28;20479;-45
2024/01/26 10:31:35;;;;;;;;;;;;;;;;;;5065175;28;19929;-45
2024/01/26 10:34:01;;;;;;;;;;;;;;;;;;5066065;28;20031;-43
2024/01/26 10:36:26;;;;;;;;;;;;;;;;;;5054969;28;20032;-44
2024/01/26 10:38:52;;;;;;;;;;;;;;;;;;5064137;28;19964;-44
2024/01/26 10:41:18;;;;;;;;;;;;;;;;;;5061084;28;19963;-45
2024/01/26 10:43:44;;;;;;;;;;;;;;;;;;5058783;28;20325;-45
2024/01/26 10:46:09;;;;;;;;;;;;;;;;;;5062612;28;20319;-45
2024/01/26 10:48:35;;;;;;;;;;;;;;;;;;5066197;28;19924;-45
2024/01/26 10:51:00;;;;;;;;;;;;;;;;;;5069577;28;20026;-44
2024/01/26 10:53:26;;;;;;;;;;;;;;;;;;5067065;28;20027;-40
2024/01/26 10:55:51;;;;;;;;;;;;;;;;;;5068872;28;19925;-40
2024/01/26 10:58:17;;;;;;;;;;;;;;;;;;5063597;28;19964;-40
2024/01/26 11:00:42;;;;;;;;;;;;;;;;;;5064893;28;20290;-41
2024/01/26 11:03:08;;;;;;;;;;;;;;;;;;5069749;28;19955;-45
2024/01/26 11:05:33;;;;;;;;;;;;;;;;;;5073917;28;19925;-44
2024/01/26 11:07:59;;;;;;;;;;;;;;;;;;5073996;28;19928;-42
2024/01/26 11:10:25;;;;;;;;;;;;;;;;;;5073591;28;20039;-42
2024/01/26 11:12:50;;;;;;;;;;;;;;;;;;5067304;28;19933;-42
2024/01/26 11:15:16;;;;;;;;;;;;;;;;;;5071187;28;20376;-45
2024/01/26 11:17:42;;;;;;;;;;;;;;;;;;5069536;28;19925;-41
2024/01/26 11:20:08;;;;;;;;;;;;;;;;;;5067312;28;19931;-41
2024/01/26 11:22:33;;;;;;;;;;;;;;;;;;5071109;28;19925;-41
2024/01/26 11:24:59;;;;;;;;;;;;;;;;;;5067909;28;19924;-44
2024/01/26 11:27:24;;;;;;;;;;;;;;;;;;5065062;28;19962;-43
2024/01/26 11:29:49;;;;;;;;;;;;;;;;;;5057807;28;20067;-42
2024/01/26 11:32:15;;;;;;;;;;;;;;;;;;5067445;28;19967;-43
2024/01/26 11:34:40;;;;;;;;;;;;;;;;;;5072596;28;20042;-43
2024/01/26 11:37:06;;;;;;;;;;;;;;;;;;5066762;28;19972;-42
2024/01/26 11:39:31;;;;;;;;;;;;;;;;;;5066721;28;20288;-44
2024/01/26 11:41:57;;;;;;;;;;;;;;;;;;5068363;28;20074;-42
2024/01/26 11:44:22;;;;;;;;;;;;;;;;;;5069300;28;19966;-43
2024/01/26 11:46:48;;;;;;;;;;;;;;;;;;5049883;28;19951;-43
2024/01/26 11:49:13;;;;;;;;;;;;;;;;;;5065438;28;19959;-42
2024/01/26 11:51:39;;;;;;;;;;;;;;;;;;5052271;28;20020;-42
2024/01/26 11:54:04;;;;;;;;;;;;;;;;;;5052246;28;19975;-41
2024/01/26 11:56:30;;;;;;;;;;;;;;;;;;5051452;28;19999;-42
2024/01/26 11:58:56;;;;;;;;;;;;;;;;;;5068990;28;19967;-43
2024/01/26 12:01:21;;;;;;;;;;;;;;;;;;5070991;28;19928;-43
2024/01/26 12:03:46;;;;;;;;;;;;;;;;;;5069733;28;20470;-42
2024/01/26 12:06:12;;;;;;;;;;;;;;;;;;5071554;28;20027;-42
2024/01/26 12:08:38;;;;;;;;;;;;;;;;;;5064493;28;19925;-43
2024/01/26 12:11:03;;;;;;;;;;;;;;;;;;5071376;28;20024;-45
2024/01/26 12:13:29;;;;;;;;;;;;;;;;;;5066867;28;19979;-42
2024/01/26 12:15:54;;;;;;;;;;;;;;;;;;5052082;28;20012;-42
2024/01/26 12:18:20;;;;;;;;;;;;;;;;;;5052964;28;19951;-42
2024/01/26 12:20:45;;;;;;;;;;;;;;;;;;5066644;28;19981;-42
2024/01/26 12:23:11;;;;;;;;;;;;;;;;;;5053436;28;20006;-45
2024/01/26 12:25:36;;;;;;;;;;;;;;;;;;5052345;28;19979;-42
2024/01/26 12:28:05;;;;;;;;;;;;;;;;;;5062334;28;19999;-43
2024/01/26 12:30:30;;;;;;;;;;;;;;;;;;5072837;28;19924;-43
2024/01/26 12:32:55;;;;;;;;;;;;;;;;;;5066849;28;20434;-42
2024/01/26 12:35:22;;;;;;;;;;;;;;;;;;5073284;28;19971;-43
2024/01/26 12:37:50;;;;;;;;;;;;;;;;;;5072676;28;19925;-42
2024/01/26 12:40:15;;;;;;;;;;;;;;;;;;5073372;28;19962;-44
2024/01/26 12:42:41;;;;;;;;;;;;;;;;;;5073327;28;20022;-44
2024/01/26 12:45:06;;;;;;;;;;;;;;;;;;5072997;28;19968;-43
2024/01/26 12:47:31;;;;;;;;;;;;;;;;;;5073080;28;20042;-42
2024/01/26 12:49:57;;;;;;;;;;;;;;;;;;5073108;28;20256;-42
2024/01/26 12:52:22;;;;;;;;;;;;;;;;;;5072968;28;20041;-43
2024/01/26 12:54:52;;;;;;;;;;;;;;;;;;5072536;28;19947;-42
2024/01/26 12:57:17;;;;;;;;;;;;;;;;;;5072761;28;20280;-43
2024/01/26 12:59:43;;;;;;;;;;;;;;;;;;5072568;28;20382;-42
2024/01/26 13:02:08;;;;;;;;;;;;;;;;;;5072673;28;20007;-42
2024/01/26 13:04:34;;;;;;;;;;;;;;;;;;5072785;28;20406;-44
2024/01/26 13:07:00;;;;;;;;;;;;;;;;;;5072979;28;19924;-42
2024/01/26 13:09:26;;;;;;;;;;;;;;;;;;5072957;28;19970;-43
2024/01/26 13:11:54;;;;;;;;;;;;;;;;;;5072874;28;19931;-42
2024/01/26 13:14:19;;;;;;;;;;;;;;;;;;5072613;28;19951;-42
2024/01/26 13:16:45;;;;;;;;;;;;;;;;;;5072450;28;20019;-44
2024/01/26 13:19:11;;;;;;;;;;;;;;;;;;5072706;28;20385;-44
2024/01/26 13:21:37;;;;;;;;;;;;;;;;;;5070629;28;19929;-44
2024/01/26 13:24:03;;;;;;;;;;;;;;;;;;5072182;28;19929;-42
2024/01/26 13:26:29;;;;;;;;;;;;;;;;;;5072409;28;19924;-42
2024/01/26 13:28:54;;;;;;;;;;;;;;;;;;5072405;28;20019;-44
2024/01/26 13:31:20;;;;;;;;;;;;;;;;;;5072175;28;20418;-43
2024/01/26 13:33:45;;;;;;;;;;;;;;;;;;5072523;28;20003;-45
2024/01/26 13:36:11;;;;;;;;;;;;;;;;;;5071355;28;20333;-45
2024/01/26 13:38:36;;;;;;;;;;;;;;;;;;5071953;28;20428;-45
2024/01/26 13:41:02;;;;;;;;;;;;;;;;;;5071633;28;19928;-44
2024/01/26 13:43:30;;;;;;;;;;;;;;;;;;5072295;28;19928;-45
2024/01/26 13:45:55;;;;;;;;;;;;;;;;;;5072263;28;19925;-45
2024/01/26 13:48:21;;;;;;;;;;;;;;;;;;5072024;28;19924;-45
2024/01/26 13:50:48;;;;;;;;;;;;;;;;;;5072184;28;19928;-43
2024/01/26 13:53:14;;;;;;;;;;;;;;;;;;5072323;28;20019;-44
2024/01/26 13:55:39;;;;;;;;;;;;;;;;;;5071782;28;19966;-44
2024/01/26 13:58:05;;;;;;;;;;;;;;;;;;5072165;28;20019;-45
2024/01/26 14:00:30;;;;;;;;;;;;;;;;;;5071672;28;19930;-44
2024/01/26 14:02:56;;;;;;;;;;;;;;;;;;5071811;28;20339;-43
2024/01/26 14:05:21;;;;;;;;;;;;;;;;;;5072138;28;19924;-43
2024/01/26 14:07:47;;;;;;;;;;;;;;;;;;5072146;28;19928;-43
2024/01/26 14:10:12;;;;;;;;;;;;;;;;;;5072155;28;19924;-43
2024/01/26 14:12:38;;;;;;;;;;;;;;;;;;5072101;28;19924;-43
2024/01/26 14:15:03;;;;;;;;;;;;;;;;;;5072195;28;19958;-44
2024/01/26 14:17:29;;;;;;;;;;;;;;;;;;5071858;28;19971;-44
2024/01/26 14:19:54;;;;;;;;;;;;;;;;;;5071922;28;19970;-43
2024/01/26 14:22:20;;;;;;;;;;;;;;;;;;5068140;28;20078;-45
2024/01/26 14:24:45;;;;;;;;;;;;;;;;;;5070884;28;19973;-42
2024/01/26 14:27:12;;;;;;;;;;;;;;;;;;5071461;28;19924;-43
2024/01/26 14:29:38;;;;;;;;;;;;;;;;;;5071493;28;19933;-46
2024/01/26 14:32:03;;;;;;;;;;;;;;;;;;5071845;28;19994;-44
2024/01/26 14:34:29;;;;;;;;;;;;;;;;;;5071739;28;19951;-44
2024/01/26 14:36:54;;;;;;;;;;;;;;;;;;5071788;28;19924;-43
2024/01/26 14:39:19;;;;;;;;;;;;;;;;;;5071749;28;19925;-45
2024/01/26 14:41:45;;;;;;;;;;;;;;;;;;5071793;28;19924;-43
2024/01/26 14:44:11;;;;;;;;;;;;;;;;;;5071614;28;19924;-43
2024/01/26 14:46:38;;;;;;;;;;;;;;;;;;5071420;28;19924;-44
2024/01/26 14:49:04;;;;;;;;;;;;;;;;;;5074263;28;19928;-43
2024/01/26 14:51:29;;;;;;;;;;;;;;;;;;5074934;28;19925;-43
2024/01/26 14:53:55;;;;;;;;;;;;;;;;;;5074508;28;20015;-43
2024/01/26 14:56:20;;;;;;;;;;;;;;;;;;5074918;28;20292;-47
2024/01/26 14:58:45;;;;;;;;;;;;;;;;;;5074659;28;19967;-44
2024/01/26 15:01:11;;;;;;;;;;;;;;;;;;5074476;28;20464;-43
2024/01/26 15:03:37;;;;;;;;;;;;;;;;;;5074512;28;19947;-43
2024/01/26 15:06:03;;;;;;;;;;;;;;;;;;5074919;28;19932;-42
2024/01/26 15:08:28;;;;;;;;;;;;;;;;;;5074908;28;19925;-43
2024/01/26 15:10:56;;;;;;;;;;;;;;;;;;5074822;28;19963;-44
2024/01/26 15:13:22;;;;;;;;;;;;;;;;;;5074803;28;20292;-43
2024/01/26 15:15:47;;;;;;;;;;;;;;;;;;5074488;28;20440;-44
2024/01/26 15:18:12;;;;;;;;;;;;;;;;;;5074611;28;20287;-44
2024/01/26 15:20:38;;;;;;;;;;;;;;;;;;5074339;28;20434;-43
2024/01/26 15:23:04;;;;;;;;;;;;;;;;;;5073702;28;20367;-45
2024/01/26 15:25:30;;;;;;;;;;;;;;;;;;5073522;28;20288;-44
2024/01/26 15:27:55;;;;;;;;;;;;;;;;;;5074342;28;19963;-43
2024/01/26 15:30:20;;;;;;;;;;;;;;;;;;5074129;28;19925;-44
2024/01/26 15:32:46;;;;;;;;;;;;;;;;;;5074547;28;19947;-43
2024/01/26 15:35:12;;;;;;;;;;;;;;;;;;5074334;28;19924;-43
2024/01/26 15:37:37;;;;;;;;;;;;;;;;;;5074477;28;20016;-43
2024/01/26 15:40:02;;;;;;;;;;;;;;;;;;5074458;28;20007;-44
2024/01/26 15:42:28;;;;;;;;;;;;;;;;;;5074384;28;19936;-44
2024/01/26 15:44:54;;;;;;;;;;;;;;;;;;5073617;28;19950;-43
2024/01/26 15:47:19;;;;;;;;;;;;;;;;;;5073980;28;20372;-43
2024/01/26 15:49:45;;;;;;;;;;;;;;;;;;5074102;28;19924;-44
2024/01/26 15:52:10;;;;;;;;;;;;;;;;;;5073989;28;19955;-44
2024/01/26 15:54:36;;;;;;;;;;;;;;;;;;5073649;28;19971;-43
2024/01/26 15:57:03;;;;;;;;;;;;;;;;;;5073948;28;19966;-42
2024/01/26 15:59:29;;;;;;;;;;;;;;;;;;5072574;28;19936;-44
2024/01/26 16:01:54;;;;;;;;;;;;;;;;;;5074014;28;19999;-43
2024/01/26 16:04:20;;;;;;;;;;;;;;;;;;5073849;28;20257;-46
2024/01/26 16:06:45;;;;;;;;;;;;;;;;;;5073942;28;19925;-43
2024/01/26 16:09:15;;;;;;;;;;;;;;;;;;5073871;28;19925;-44
2024/01/26 16:11:42;;;;;;;;;;;;;;;;;;5073870;28;19925;-43
2024/01/26 16:14:08;;;;;;;;;;;;;;;;;;5073847;28;19973;-44
2024/01/26 16:16:33;;;;;;;;;;;;;;;;;;5073647;28;19928;-43
2024/01/26 16:18:58;;;;;;;;;;;;;;;;;;5073591;28;19975;-43
2024/01/26 16:21:24;;;;;;;;;;;;;;;;;;5073619;28;20015;-42
2024/01/26 16:23:50;;;;;;;;;;;;;;;;;;5073228;28;19924;-43
2024/01/26 16:26:15;;;;;;;;;;;;;;;;;;5061488;28;20045;-44
2024/01/26 16:28:41;;;;;;;;;;;;;;;;;;5053281;28;19932;-44
2024/01/26 16:31:06;;;;;;;;;;;;;;;;;;5053162;28;19932;-44
2024/01/26 16:33:33;;;;;;;;;;;;;;;;;;5053512;28;19955;-42